ADDS METAR Data INFO
IDs: Format: Raw Decoded Include TAF

Data at: 0712 UTC 19 Oct 2017

PAIK 190656Z AUTO 30004KT 10SM CLR M12/M14 A2956 RMK AO2 SLP016 T11171144 FZRANO
PAIK 190556Z AUTO 33006KT 10SM CLR M11/M14 A2956 RMK AO2 SLP015 T11111139 11039 21111 55000 FZRANO
PAIK 190456Z AUTO 34008KT 10SM CLR M10/M14 A2956 RMK AO2 SLP015 T11001139 FZRANO
PAIK 190356Z AUTO 33007KT 10SM CLR M10/M13 A2956 RMK AO2 SLP015 T11001133 FZRANO
PAIK 190256Z AUTO 01003KT 10SM CLR M08/M13 A2956 RMK AO2 SLP016 T10831133 55000 FZRANO
PAIK 190056Z AUTO 36008KT 10SM CLR M04/M12 A2955 RMK AO2 SLP012 T10441117 FZRANO
PAIK 182356Z AUTO 36007KT 10SM CLR M04/M12 A2956 RMK AO2 SLP015 T10391117 11033 21078 55001 FZRANO
PAIK 182256Z AUTO 06008KT 10SM CLR M04/M12 A2955 RMK AO2 SLP013 T10441117 FZRANO
PAIK 181956Z AUTO 34005KT 10SM CLR M06/M09 A2955 RMK AO2 SLP014 T10611089 FZRANO
PAIK 181856Z AUTO 35007KT 10SM CLR M07/M09 A2954 RMK AO2 SLP007 T10721089 FZRANO
PAIK 181656Z AUTO 34008KT 10SM CLR M08/M09 A2951 RMK AO2 SLP999 T10781089 FZRANO
PAIK 181456Z AUTO 33003KT 10SM SCT055 M08/M09 A2950 RMK AO2 SLP994 T10831094 55002 FZRANO
PAIK 181356Z AUTO 15003KT 10SM BKN065 M07/M08 A2949 RMK AO2 SLP992 T10721078 FZRANO
PAIK 181256Z AUTO 00000KT 10SM OVC070 M07/M08 A2950 RMK AO2 SLP995 T10721078 FZRANO
PAIK 181156Z AUTO 34004KT 10SM OVC075 M07/M08 A2950 RMK AO2 SLP995 T10721083 11061 21083 56003 FZRANO
PAIK 180956Z AUTO 00000KT 10SM OVC100 M08/M09 A2951 RMK AO2 SLP998 T10781089 FZRANO
PAIK 180856Z AUTO 36004KT 10SM OVC100 M08/M09 A2951 RMK AO2 SLP998 T10781089 410061083 51003 FZRANO
PAIK 180756Z AUTO 02003KT 10SM CLR M08/M08 A2951 RMK AO2 SLP999 T10781083 FZRANO